KCKI

Williamsburg Regional Airport

Kingstree, South Carolina, USA
METAR KCKI 201615Z AUTO 23004KT 10SM SCT030 31/23 A3007 RMK AO2
Observed Flight Rules
Aug-20 @ 16:15 UTC (11 minutes ago) Visual Flight Rules
Wind Visibility Clouds
230° at 4 knots 10 miles
  • Scattered at 3,000' AGL
Temperatures Readings
Current 31°C / 88°F
Dewpoint 23°C / 73°F
Humidity 62%
Altimeter 30.07" Hg
Pressure 1018 hPa
Elevation 21
METAR KCKI 201615Z AUTO 23004KT 10SM SCT030 31/23 A3007 RMK AO2
Observed Flight Rules
Aug-20 @ 16:15 UTC
(11 minutes ago)
VFR
Wind Visibility
230° at 4 knots 10 miles
Clouds
  • Scattered at 3,000' AGL
Temperature Dewpoint
31°C / 88°F 23°C / 73°F
Humidity Altimeter Pressure
62% 30.07" Hg 1018 hPa